createdAt,value
2022-07-26T00:00:55.428Z,73.29
2022-07-26T00:03:22.003Z,73.14
2022-07-26T00:05:48.555Z,73.16
2022-07-26T00:08:15.126Z,73.93
2022-07-26T00:10:44.677Z,73.88
2022-07-26T00:13:11.680Z,74.17
2022-07-26T00:15:39.012Z,74.27
2022-07-26T00:18:06.256Z,74.56
2022-07-26T00:20:38.364Z,74.16
2022-07-26T00:23:05.443Z,74.06
2022-07-26T00:25:32.100Z,74.74
2022-07-26T00:27:58.914Z,75.38
2022-07-26T00:30:25.457Z,74.83
2022-07-26T00:32:52.905Z,74.86
2022-07-26T00:35:20.326Z,75.21
2022-07-26T00:37:47.660Z,75.69
2022-07-26T00:40:15.572Z,76.98
2022-07-26T00:42:42.667Z,76.36
2022-07-26T00:45:10.462Z,77.18
2022-07-26T00:47:37.101Z,76.70
2022-07-26T00:50:07.598Z,78.41
2022-07-26T00:52:34.172Z,78.38
2022-07-26T00:55:00.694Z,78.95
2022-07-26T00:57:27.222Z,79.97
2022-07-26T00:59:53.720Z,80.53
2022-07-26T01:02:20.738Z,79.40
2022-07-26T01:04:47.264Z,79.75
2022-07-26T01:07:15.725Z,79.95
2022-07-26T01:09:43.500Z,80.21
2022-07-26T01:12:11.337Z,81.22
2022-07-26T01:14:38.117Z,81.09
2022-07-26T01:17:04.643Z,80.87
2022-07-26T01:19:31.181Z,82.76
2022-07-26T01:21:57.693Z,81.50
2022-07-26T01:24:24.179Z,81.42
2022-07-26T01:26:50.632Z,81.37
2022-07-26T01:29:17.229Z,81.00
2022-07-26T01:31:43.740Z,81.27
2022-07-26T01:34:10.572Z,82.07
2022-07-26T01:36:37.518Z,81.99
2022-07-26T01:39:06.688Z,81.90
2022-07-26T01:41:37.988Z,82.14
2022-07-26T01:44:06.498Z,82.08
2022-07-26T01:46:34.452Z,82.45
2022-07-26T01:49:01.807Z,82.30
2022-07-26T01:51:28.621Z,82.79
2022-07-26T01:53:55.245Z,83.57
2022-07-26T01:56:21.745Z,83.42
2022-07-26T01:58:48.245Z,83.39
2022-07-26T02:01:14.767Z,83.30
2022-07-26T02:03:41.342Z,82.77
2022-07-26T02:06:08.159Z,84.27
2022-07-26T02:08:34.652Z,83.90
2022-07-26T02:11:03.708Z,84.24
2022-07-26T02:13:37.586Z,83.88
2022-07-26T02:16:06.694Z,83.66
2022-07-26T02:18:33.783Z,83.00
2022-07-26T02:21:01.479Z,83.73
2022-07-26T02:23:28.631Z,84.00
2022-07-26T02:25:55.702Z,84.00
2022-07-26T02:28:23.557Z,84.61
2022-07-26T02:30:50.549Z,84.91
2022-07-26T02:33:18.356Z,84.96
2022-07-26T02:35:46.149Z,85.04
2022-07-26T02:38:15.029Z,84.47
2022-07-26T02:40:42.225Z,84.94
2022-07-26T02:43:10.170Z,85.46
2022-07-26T02:45:37.364Z,84.90
2022-07-26T02:48:04.479Z,86.24
2022-07-26T02:50:32.096Z,86.67
2022-07-26T02:52:58.619Z,86.84
2022-07-26T02:55:26.886Z,87.06
2022-07-26T02:57:53.532Z,86.74
2022-07-26T03:00:23.716Z,87.47
2022-07-26T03:02:51.453Z,87.36
2022-07-26T03:05:18.443Z,89.11
2022-07-26T03:07:45.091Z,88.52
2022-07-26T03:10:11.552Z,88.70
2022-07-26T03:12:38.119Z,88.76
2022-07-26T03:15:05.876Z,89.39
2022-07-26T03:17:32.641Z,89.57
2022-07-26T03:19:59.154Z,89.99
2022-07-26T03:22:25.615Z,90.66
2022-07-26T03:24:52.166Z,91.47
2022-07-26T03:27:18.641Z,91.74
2022-07-26T03:29:45.121Z,91.62
2022-07-26T03:32:11.674Z,91.68
2022-07-26T03:34:38.195Z,91.96
2022-07-26T03:37:04.922Z,92.22
2022-07-26T03:39:31.559Z,91.89
2022-07-26T03:41:58.027Z,92.24
2022-07-26T03:44:24.504Z,92.47
2022-07-26T03:46:50.954Z,92.17
2022-07-26T03:49:17.620Z,91.34
2022-07-26T03:51:44.416Z,92.39
2022-07-26T03:54:11.387Z,92.65
2022-07-26T03:56:38.390Z,93.69
2022-07-26T03:59:07.829Z,93.53
2022-07-26T04:01:35.566Z,93.29
2022-07-26T04:04:02.129Z,93.92
2022-07-26T04:06:29.901Z,95.21
2022-07-26T04:08:56.598Z,95.62
2022-07-26T04:11:27.708Z,95.43
2022-07-26T04:13:55.560Z,96.67
2022-07-26T04:16:22.280Z,97.27
2022-07-26T04:18:48.869Z,98.23
2022-07-26T04:21:15.551Z,97.77
2022-07-26T04:23:42.080Z,99.04
2022-07-26T04:26:08.615Z,98.17
2022-07-26T04:28:35.233Z,98.62
2022-07-26T04:31:02.056Z,97.99
2022-07-26T04:33:28.554Z,97.88
2022-07-26T04:35:55.105Z,98.62
2022-07-26T04:38:21.606Z,98.76
2022-07-26T04:40:50.414Z,99.10
2022-07-26T04:43:17.685Z,99.09
2022-07-26T04:45:48.337Z,100.00
2022-07-26T04:48:16.099Z,100.00
2022-07-26T04:50:43.503Z,100.00
2022-07-26T04:53:11.188Z,100.00
2022-07-26T04:55:38.550Z,100.00
2022-07-26T04:58:05.418Z,100.00
2022-07-26T05:00:31.979Z,100.00
2022-07-26T05:03:00.053Z,100.00
2022-07-26T05:05:29.312Z,100.00
2022-07-26T05:07:59.014Z,100.00
2022-07-26T05:10:35.373Z,100.00
2022-07-26T05:13:04.431Z,100.00
2022-07-26T05:15:35.028Z,100.00
2022-07-26T05:18:06.864Z,100.00
2022-07-26T05:20:34.605Z,100.00
2022-07-26T05:23:01.177Z,100.00
2022-07-26T05:25:27.774Z,100.00
2022-07-26T05:27:54.333Z,100.00
2022-07-26T05:30:21.272Z,100.00
2022-07-26T05:32:47.805Z,100.00
2022-07-26T05:35:14.689Z,100.00
2022-07-26T05:37:41.212Z,100.00
2022-07-26T05:40:08.280Z,100.00
2022-07-26T05:42:34.865Z,100.00
2022-07-26T05:45:01.486Z,100.00
2022-07-26T05:47:27.981Z,100.00
2022-07-26T05:49:55.227Z,100.00
2022-07-26T05:52:36.454Z,100.00
2022-07-26T05:55:03.101Z,100.00
2022-07-26T05:57:29.593Z,100.00
2022-07-26T05:59:56.111Z,100.00
2022-07-26T06:02:22.761Z,100.00
2022-07-26T06:04:49.329Z,100.00
2022-07-26T06:07:16.049Z,100.00
2022-07-26T06:09:42.914Z,100.00
2022-07-26T06:12:09.599Z,100.00
2022-07-26T06:14:36.324Z,100.00
2022-07-26T06:17:04.410Z,100.00
2022-07-26T06:19:31.821Z,100.00
2022-07-26T06:21:58.370Z,100.00
2022-07-26T06:24:24.906Z,100.00
2022-07-26T06:26:56.814Z,100.00
2022-07-26T06:29:24.468Z,100.00
2022-07-26T06:31:58.731Z,100.00
2022-07-26T06:34:25.357Z,100.00
2022-07-26T06:36:51.869Z,100.00
2022-07-26T06:39:18.341Z,100.00
2022-07-26T06:41:44.811Z,100.00
2022-07-26T06:44:11.856Z,100.00
2022-07-26T06:46:38.541Z,100.00
2022-07-26T06:49:05.612Z,100.00
2022-07-26T06:51:33.799Z,100.00
2022-07-26T06:54:01.011Z,100.00
2022-07-26T06:56:27.735Z,100.00
2022-07-26T06:58:55.315Z,100.00
2022-07-26T07:01:59.562Z,100.00
2022-07-26T07:04:09.284Z,100.00
2022-07-26T07:06:36.120Z,100.00
2022-07-26T07:09:02.648Z,100.00
2022-07-26T07:11:29.512Z,100.00
2022-07-26T07:13:56.318Z,100.00
2022-07-26T07:16:22.905Z,100.00
2022-07-26T07:18:51.271Z,100.00
2022-07-26T07:21:17.785Z,100.00
2022-07-26T07:23:44.351Z,100.00
2022-07-26T07:26:10.987Z,100.00
2022-07-26T07:28:40.514Z,100.00
2022-07-26T07:31:07.057Z,100.00
2022-07-26T07:33:43.716Z,100.00
2022-07-26T07:36:20.098Z,100.00
2022-07-26T07:38:47.075Z,100.00
2022-07-26T07:41:13.673Z,100.00
2022-07-26T07:43:40.181Z,100.00
2022-07-26T07:46:07.000Z,100.00
2022-07-26T07:48:33.508Z,100.00
2022-07-26T07:51:00.122Z,100.00
2022-07-26T07:53:26.624Z,100.00
2022-07-26T07:55:55.266Z,100.00
2022-07-26T07:58:22.115Z,100.00
2022-07-26T08:00:48.822Z,100.00
2022-07-26T08:03:18.564Z,100.00
2022-07-26T08:05:46.933Z,100.00
2022-07-26T08:08:16.970Z,100.00
2022-07-26T08:10:49.100Z,100.00
2022-07-26T08:13:21.254Z,100.00
2022-07-26T08:15:49.540Z,100.00
2022-07-26T08:18:16.432Z,100.00
2022-07-26T08:20:43.499Z,100.00
2022-07-26T08:23:10.340Z,100.00
2022-07-26T08:25:42.601Z,100.00
2022-07-26T08:28:37.622Z,100.00
2022-07-26T08:31:03.631Z,100.00
2022-07-26T08:33:30.200Z,100.00
2022-07-26T08:35:58.593Z,100.00
2022-07-26T08:38:25.518Z,100.00
2022-07-26T08:40:52.198Z,100.00
2022-07-26T08:43:18.699Z,100.00
2022-07-26T08:45:47.246Z,100.00
2022-07-26T08:48:18.336Z,100.00
2022-07-26T08:50:45.469Z,100.00
2022-07-26T08:53:13.227Z,100.00
2022-07-26T08:56:05.493Z,100.00
2022-07-26T08:58:26.677Z,100.00
2022-07-26T09:01:13.884Z,100.00
2022-07-26T09:03:42.573Z,100.00
2022-07-26T09:06:12.210Z,100.00
2022-07-26T09:08:38.824Z,99.84
2022-07-26T09:11:23.826Z,98.78
2022-07-26T09:13:55.796Z,99.02
2022-07-26T09:16:22.513Z,95.64
2022-07-26T09:18:49.173Z,96.86
2022-07-26T09:21:38.723Z,89.29
2022-07-26T09:24:05.723Z,89.90
2022-07-26T09:26:32.271Z,89.60
2022-07-26T09:29:10.451Z,88.10
2022-07-26T09:31:38.562Z,90.22
2022-07-26T09:34:06.937Z,91.83
2022-07-26T09:36:33.836Z,90.09
2022-07-26T09:39:02.404Z,88.56
2022-07-26T09:41:36.938Z,89.83
2022-07-26T09:44:20.764Z,86.29
2022-07-26T09:46:58.868Z,89.12
2022-07-26T09:49:32.522Z,87.32
2022-07-26T09:52:21.720Z,88.10
2022-07-26T09:54:49.609Z,86.46
2022-07-26T09:57:18.539Z,84.35
2022-07-26T09:59:46.329Z,84.15
2022-07-26T10:02:14.126Z,81.77
2022-07-26T10:04:42.290Z,82.86
2022-07-26T10:07:10.170Z,80.70
2022-07-26T10:09:45.209Z,79.70
2022-07-26T10:12:15.726Z,76.70
2022-07-26T10:14:43.295Z,78.17
2022-07-26T10:17:29.261Z,75.04
2022-07-26T10:19:58.895Z,71.84
2022-07-26T10:22:26.781Z,73.23
2022-07-26T10:24:58.598Z,71.57
2022-07-26T10:27:39.901Z,70.63
2022-07-26T10:30:33.758Z,72.63
2022-07-26T10:33:04.037Z,73.39
2022-07-26T10:35:36.752Z,73.13
2022-07-26T10:38:03.279Z,73.48
2022-07-26T10:40:30.300Z,73.71
2022-07-26T10:46:16.121Z,73.93
2022-07-26T10:48:59.177Z,71.14
2022-07-26T10:51:28.478Z,71.92
2022-07-26T10:54:12.166Z,73.55
2022-07-26T10:56:39.823Z,71.94
2022-07-26T10:59:06.819Z,72.30
2022-07-26T11:01:42.129Z,73.89
2022-07-26T11:04:19.076Z,72.59
2022-07-26T11:06:47.537Z,74.25
2022-07-26T11:09:14.060Z,73.05
2022-07-26T11:11:46.984Z,74.74
2022-07-26T11:14:16.698Z,78.72
2022-07-26T11:16:50.294Z,82.55
2022-07-26T11:19:23.270Z,84.88
2022-07-26T11:21:55.400Z,86.94
2022-07-26T11:24:22.152Z,88.14
2022-07-26T11:26:49.128Z,87.81
2022-07-26T11:29:17.475Z,88.35
2022-07-26T11:31:51.420Z,88.09
2022-07-26T11:34:33.334Z,87.55
2022-07-26T11:37:04.705Z,87.78
2022-07-26T11:39:34.573Z,87.17
2022-07-26T11:42:04.192Z,88.79
2022-07-26T11:44:31.448Z,86.90
2022-07-26T11:46:58.504Z,88.45
2022-07-26T11:52:25.492Z,89.84
2022-07-26T11:54:53.540Z,87.08
2022-07-26T11:57:20.623Z,86.54
2022-07-26T11:59:50.437Z,83.48
2022-07-26T12:02:17.420Z,83.28
2022-07-26T12:04:44.868Z,83.92
2022-07-26T12:07:16.960Z,79.92
2022-07-26T12:09:46.224Z,77.93
2022-07-26T12:12:21.480Z,77.13
2022-07-26T12:15:01.178Z,76.44
2022-07-26T12:17:34.940Z,75.50
2022-07-26T12:20:18.377Z,75.15
2022-07-26T12:22:56.164Z,79.03
2022-07-26T12:25:27.532Z,71.28
2022-07-26T12:27:54.460Z,69.84
2022-07-26T12:30:21.513Z,71.09
2022-07-26T12:32:51.419Z,70.24
2022-07-26T12:35:29.760Z,73.87
2022-07-26T12:37:57.151Z,78.38
2022-07-26T12:40:39.472Z,77.01
2022-07-26T12:43:06.307Z,73.15
2022-07-26T12:45:34.792Z,73.92
2022-07-26T12:48:03.727Z,74.04
2022-07-26T12:50:31.703Z,74.98
2022-07-26T12:53:04.634Z,75.54
2022-07-26T12:55:31.745Z,72.84
2022-07-26T12:57:59.455Z,75.76
2022-07-26T13:00:26.359Z,74.29
2022-07-26T13:02:55.603Z,72.31
2022-07-26T13:05:22.523Z,70.22
2022-07-26T13:07:49.135Z,72.66
2022-07-26T13:10:33.074Z,72.21
2022-07-26T13:13:00.930Z,69.23
2022-07-26T13:15:36.398Z,69.05
2022-07-26T13:18:08.502Z,71.17
2022-07-26T13:20:38.430Z,71.31
2022-07-26T13:23:05.917Z,72.41
2022-07-26T13:25:39.685Z,72.38
2022-07-26T13:28:07.807Z,73.08
2022-07-26T13:30:36.433Z,73.97
2022-07-26T13:33:03.075Z,72.18
2022-07-26T13:35:29.552Z,71.17
2022-07-26T13:37:56.048Z,74.65
2022-07-26T13:40:25.291Z,73.37
2022-07-26T13:42:54.098Z,75.11
2022-07-26T13:45:20.718Z,75.42
2022-07-26T13:47:47.297Z,75.26
2022-07-26T13:50:13.788Z,76.31
2022-07-26T13:52:40.332Z,75.28
2022-07-26T13:55:07.173Z,76.88
2022-07-26T13:57:48.052Z,74.73
2022-07-26T14:00:20.331Z,76.28
2022-07-26T14:02:47.000Z,74.16
2022-07-26T14:05:13.650Z,74.64
2022-07-26T14:07:42.401Z,75.57
2022-07-26T14:10:09.353Z,75.87
2022-07-26T14:12:37.179Z,75.20
2022-07-26T14:15:11.283Z,75.94
2022-07-26T14:17:39.988Z,77.48
2022-07-26T14:20:07.049Z,76.98
2022-07-26T14:22:33.721Z,76.17
2022-07-26T14:25:00.354Z,77.58
2022-07-26T14:27:26.869Z,77.37
2022-07-26T14:29:53.441Z,77.70
2022-07-26T14:32:22.208Z,79.63
2022-07-26T14:34:49.642Z,79.55
2022-07-26T14:37:42.484Z,78.80
2022-07-26T14:40:07.282Z,78.38
2022-07-26T14:42:34.088Z,78.93
2022-07-26T14:45:00.618Z,79.82
2022-07-26T14:47:27.150Z,81.25
2022-07-26T14:49:53.615Z,79.09
2022-07-26T14:52:20.194Z,79.18
2022-07-26T14:54:46.755Z,81.21
2022-07-26T14:57:13.226Z,79.29
2022-07-26T14:59:39.681Z,78.14
2022-07-26T15:02:06.376Z,77.12
2022-07-26T15:04:33.167Z,78.99
2022-07-26T15:06:59.855Z,78.23
2022-07-26T15:09:26.375Z,78.03
2022-07-26T15:11:53.089Z,79.03
2022-07-26T15:14:19.886Z,77.95
2022-07-26T15:16:46.486Z,78.67
2022-07-26T15:19:13.104Z,79.61
2022-07-26T15:21:39.692Z,76.64
2022-07-26T15:24:06.464Z,77.83
2022-07-26T15:26:32.945Z,76.40
2022-07-26T15:28:59.460Z,74.20
2022-07-26T15:31:37.045Z,74.18
2022-07-26T15:34:07.370Z,76.52
2022-07-26T15:36:34.170Z,77.08
2022-07-26T15:39:15.619Z,75.96
2022-07-26T15:41:43.057Z,76.27
2022-07-26T15:44:10.481Z,75.27
2022-07-26T15:46:38.960Z,76.03
2022-07-26T15:49:06.720Z,76.81
2022-07-26T15:51:33.559Z,76.67
2022-07-26T15:54:00.296Z,75.60
2022-07-26T15:56:26.795Z,76.29
2022-07-26T15:58:53.345Z,75.20
2022-07-26T16:01:19.930Z,76.03
2022-07-26T16:03:47.812Z,76.06
2022-07-26T16:06:14.358Z,72.04
2022-07-26T16:08:58.934Z,71.52
2022-07-26T16:11:30.919Z,71.18
2022-07-26T16:14:01.136Z,71.46
2022-07-26T16:16:29.521Z,74.04
2022-07-26T16:18:56.388Z,74.09
2022-07-26T16:21:22.995Z,72.47
2022-07-26T16:23:50.903Z,69.93
2022-07-26T16:26:17.837Z,72.66
2022-07-26T16:28:44.395Z,70.52
2022-07-26T16:31:10.927Z,71.98
2022-07-26T16:33:37.794Z,72.14
2022-07-26T16:36:12.314Z,71.61
2022-07-26T16:38:38.786Z,70.55
2022-07-26T16:41:05.295Z,72.77
2022-07-26T16:43:31.855Z,71.78
2022-07-26T16:45:58.304Z,73.08
2022-07-26T16:48:24.796Z,73.86
2022-07-26T16:50:51.322Z,72.92
2022-07-26T16:53:17.810Z,72.83
2022-07-26T16:55:45.315Z,71.56
2022-07-26T16:58:11.794Z,71.93
2022-07-26T17:00:38.359Z,73.02
2022-07-26T17:03:05.128Z,71.46
2022-07-26T17:05:31.698Z,71.14
2022-07-26T17:07:58.266Z,70.87
2022-07-26T17:10:25.748Z,71.29
2022-07-26T17:12:52.427Z,71.85
2022-07-26T17:15:18.931Z,71.65
2022-07-26T17:17:48.650Z,71.90
2022-07-26T17:20:16.280Z,74.22
2022-07-26T17:22:42.821Z,73.06
2022-07-26T17:25:09.821Z,71.01
2022-07-26T17:27:36.683Z,72.06
2022-07-26T17:30:07.180Z,72.56
2022-07-26T17:32:34.371Z,72.62
2022-07-26T17:35:01.066Z,73.43
2022-07-26T17:37:27.709Z,73.92
2022-07-26T17:39:55.335Z,73.45
2022-07-26T17:42:24.103Z,74.35
2022-07-26T17:44:53.382Z,73.55
2022-07-26T17:47:29.243Z,75.29
2022-07-26T17:50:35.261Z,75.99
2022-07-26T17:52:53.632Z,77.74
2022-07-26T17:55:20.852Z,77.34
2022-07-26T17:57:49.694Z,78.64
2022-07-26T18:00:21.325Z,79.49
2022-07-26T18:02:48.449Z,79.97
2022-07-26T18:05:15.348Z,80.68
2022-07-26T18:07:41.997Z,80.73
2022-07-26T18:10:10.089Z,80.21
2022-07-26T18:12:36.692Z,78.79
2022-07-26T18:15:03.326Z,77.97
2022-07-26T18:17:29.970Z,76.98
2022-07-26T18:19:56.428Z,78.41
2022-07-26T18:22:23.347Z,78.25
2022-07-26T18:24:50.006Z,77.18
2022-07-26T18:27:16.484Z,77.29
2022-07-26T18:29:43.023Z,78.23
2022-07-26T18:32:09.566Z,76.96
2022-07-26T18:34:36.111Z,78.16
2022-07-26T18:37:02.823Z,78.52
2022-07-26T18:39:32.582Z,78.85
2022-07-26T18:41:59.579Z,79.28
2022-07-26T18:44:26.045Z,80.79
2022-07-26T18:46:52.742Z,79.32
2022-07-26T18:49:20.086Z,79.19
2022-07-26T18:51:48.765Z,80.66
2022-07-26T18:54:16.524Z,79.80
2022-07-26T18:56:43.665Z,80.50
2022-07-26T18:59:10.467Z,80.52
2022-07-26T19:01:37.358Z,82.04
2022-07-26T19:04:07.080Z,80.14
2022-07-26T19:06:34.674Z,79.69
2022-07-26T19:09:01.280Z,80.44
2022-07-26T19:11:29.519Z,81.37
2022-07-26T19:13:56.041Z,79.59
2022-07-26T19:16:22.790Z,79.82
2022-07-26T19:18:52.735Z,80.27
2022-07-26T19:21:22.202Z,79.19
2022-07-26T19:23:48.690Z,79.20
2022-07-26T19:26:15.161Z,80.30
2022-07-26T19:28:41.884Z,79.82
2022-07-26T19:31:08.486Z,80.27
2022-07-26T19:33:34.943Z,80.28
2022-07-26T19:36:01.611Z,78.98
2022-07-26T19:38:28.152Z,79.08
2022-07-26T19:40:55.248Z,79.58
2022-07-26T19:43:22.654Z,79.46
2022-07-26T19:45:49.219Z,81.25
2022-07-26T19:48:15.769Z,79.66
2022-07-26T19:50:42.542Z,80.03
2022-07-26T19:53:09.006Z,80.64
2022-07-26T19:55:38.254Z,81.29
2022-07-26T19:58:05.012Z,82.08
2022-07-26T20:00:31.492Z,81.41
2022-07-26T20:02:58.066Z,82.25
2022-07-26T20:05:24.628Z,81.26
2022-07-26T20:07:51.365Z,81.77
2022-07-26T20:10:17.993Z,81.86
2022-07-26T20:12:44.580Z,81.37
2022-07-26T20:15:14.237Z,81.53
2022-07-26T20:17:41.381Z,82.23
2022-07-26T20:20:09.666Z,82.12
2022-07-26T20:22:36.519Z,83.48
2022-07-26T20:25:03.076Z,82.53
2022-07-26T20:27:29.622Z,83.11
2022-07-26T20:30:00.753Z,80.98
2022-07-26T20:32:27.708Z,80.19
2022-07-26T20:34:54.214Z,78.83
2022-07-26T20:37:20.785Z,78.64
2022-07-26T20:39:47.294Z,78.41
2022-07-26T20:42:21.451Z,77.25
2022-07-26T20:44:48.756Z,76.94
2022-07-26T20:47:15.329Z,77.14
2022-07-26T20:49:41.806Z,76.30
2022-07-26T20:52:08.296Z,77.11
2022-07-26T20:54:34.795Z,75.60
2022-07-26T20:57:04.362Z,75.31
2022-07-26T20:59:32.367Z,74.67
2022-07-26T21:01:59.022Z,74.66
2022-07-26T21:04:25.846Z,74.24
2022-07-26T21:06:52.763Z,73.31
2022-07-26T21:09:19.846Z,73.70
2022-07-26T21:11:46.751Z,73.73
2022-07-26T21:14:13.327Z,73.96
2022-07-26T21:16:39.888Z,73.75
2022-07-26T21:19:06.486Z,73.63
2022-07-26T21:21:34.194Z,74.37
2022-07-26T21:24:00.809Z,72.50
2022-07-26T21:26:27.265Z,72.50
2022-07-26T21:28:53.737Z,71.34
2022-07-26T21:31:21.008Z,73.36
2022-07-26T21:33:47.541Z,70.12
2022-07-26T21:36:14.350Z,70.04
2022-07-26T21:38:41.654Z,71.07
2022-07-26T21:41:08.353Z,69.16
2022-07-26T21:43:34.840Z,71.49
2022-07-26T21:46:02.782Z,72.11
2022-07-26T21:48:29.995Z,71.01
2022-07-26T21:50:56.513Z,71.71
2022-07-26T21:53:23.003Z,70.30
2022-07-26T21:55:49.545Z,70.16
2022-07-26T21:58:16.092Z,70.38
2022-07-26T22:00:43.208Z,70.00
2022-07-26T22:03:11.729Z,70.17
2022-07-26T22:05:38.307Z,71.02
2022-07-26T22:08:14.191Z,72.45
2022-07-26T22:10:44.554Z,71.13
2022-07-26T22:13:12.156Z,69.89
2022-07-26T22:15:38.690Z,69.88
2022-07-26T22:18:06.002Z,69.94
2022-07-26T22:20:34.338Z,70.04
2022-07-26T22:23:03.604Z,70.77
2022-07-26T22:25:31.570Z,70.94
2022-07-26T22:27:58.704Z,71.01
2022-07-26T22:30:28.326Z,70.88
2022-07-26T22:32:59.944Z,70.29
2022-07-26T22:35:32.369Z,70.12
2022-07-26T22:38:10.232Z,71.42
2022-07-26T22:40:38.678Z,70.88
2022-07-26T22:43:06.304Z,72.15
2022-07-26T22:45:33.740Z,72.14
2022-07-26T22:48:01.847Z,70.93
2022-07-26T22:50:29.094Z,71.94
2022-07-26T22:52:56.254Z,71.74
2022-07-26T22:55:23.043Z,71.80
2022-07-26T22:57:49.763Z,71.48
2022-07-26T23:00:18.304Z,71.88
2022-07-26T23:02:44.968Z,72.46
2022-07-26T23:05:11.991Z,71.83
2022-07-26T23:07:38.787Z,72.04
2022-07-26T23:10:09.053Z,72.94
2022-07-26T23:12:36.748Z,72.82
2022-07-26T23:15:05.599Z,73.29
2022-07-26T23:17:32.241Z,73.65
2022-07-26T23:19:58.767Z,73.45
2022-07-26T23:22:25.387Z,73.58
2022-07-26T23:24:51.847Z,74.89
2022-07-26T23:27:20.274Z,74.67
2022-07-26T23:29:48.019Z,75.53
2022-07-26T23:32:15.654Z,75.43
2022-07-26T23:34:42.165Z,75.42
2022-07-26T23:37:08.752Z,75.53
2022-07-26T23:39:35.299Z,76.27
2022-07-26T23:42:02.938Z,76.74
2022-07-26T23:44:33.146Z,75.49
2022-07-26T23:46:59.714Z,76.79
2022-07-26T23:49:26.597Z,76.66
2022-07-26T23:51:53.247Z,76.54
2022-07-26T23:54:20.146Z,77.11
2022-07-26T23:56:47.435Z,77.11
2022-07-26T23:59:14.573Z,77.43
